createdAt,value
2022-11-01T00:01:30.359Z,8.00
2022-11-01T00:03:57.759Z,8.17
2022-11-01T00:06:24.855Z,7.97
2022-11-01T00:08:51.983Z,8.43
2022-11-01T00:11:19.397Z,7.73
2022-11-01T00:13:47.336Z,8.70
2022-11-01T00:16:14.894Z,7.77
2022-11-01T00:18:42.138Z,8.50
2022-11-01T00:21:09.619Z,8.60
2022-11-01T00:23:37.181Z,8.57
2022-11-01T00:26:04.725Z,8.17
2022-11-01T00:28:32.350Z,8.17
2022-11-01T00:30:59.974Z,9.80
2022-11-01T00:33:27.323Z,8.53
2022-11-01T00:35:54.491Z,7.97
2022-11-01T00:38:21.897Z,8.37
2022-11-01T00:40:49.078Z,8.53
2022-11-01T00:43:16.335Z,7.77
2022-11-01T00:45:44.147Z,6.97
2022-11-01T00:48:11.444Z,7.50
2022-11-01T00:50:38.816Z,7.30
2022-11-01T00:53:06.279Z,7.43
2022-11-01T00:55:33.425Z,7.50
2022-11-01T00:58:00.756Z,7.10
2022-11-01T01:00:28.189Z,7.40
2022-11-01T01:02:55.392Z,7.00
2022-11-01T01:05:22.725Z,7.37
2022-11-01T01:07:49.839Z,7.27
2022-11-01T01:10:16.989Z,7.90
2022-11-01T01:12:44.092Z,8.60
2022-11-01T01:15:11.344Z,7.60
2022-11-01T01:17:38.483Z,8.40
2022-11-01T01:20:05.827Z,7.87
2022-11-01T01:22:32.944Z,8.40
2022-11-01T01:25:00.216Z,7.87
2022-11-01T01:27:27.322Z,8.47
2022-11-01T01:29:54.465Z,8.07
2022-11-01T01:32:22.522Z,8.23
2022-11-01T01:34:50.074Z,8.23
2022-11-01T01:37:17.594Z,8.40
2022-11-01T01:39:44.734Z,8.67
2022-11-01T01:42:32.065Z,7.90
2022-11-01T01:44:59.137Z,8.00
2022-11-01T01:47:30.373Z,8.00
2022-11-01T01:49:57.447Z,8.10
2022-11-01T01:52:24.626Z,7.63
2022-11-01T01:54:52.261Z,7.97
2022-11-01T01:57:20.230Z,7.43
2022-11-01T01:59:47.533Z,8.00
2022-11-01T02:02:15.165Z,7.67
2022-11-01T02:04:45.381Z,6.30
2022-11-01T02:07:12.689Z,7.07
2022-11-01T02:09:40.098Z,7.27
2022-11-01T02:12:07.605Z,7.47
2022-11-01T02:14:34.778Z,6.70
2022-11-01T02:17:05.571Z,6.67
2022-11-01T02:19:49.218Z,6.23
2022-11-01T02:22:35.239Z,6.57
2022-11-01T02:25:21.057Z,6.60
2022-11-01T02:27:48.173Z,6.50
2022-11-01T02:30:15.248Z,6.10
2022-11-01T02:32:52.661Z,6.13
2022-11-01T02:35:19.733Z,5.60
2022-11-01T02:38:07.763Z,6.40
2022-11-01T02:40:37.890Z,5.80
2022-11-01T02:43:08.002Z,6.00
2022-11-01T02:45:36.812Z,5.70
2022-11-01T02:48:04.967Z,5.60
2022-11-01T02:50:42.907Z,5.73
2022-11-01T02:53:10.684Z,5.27
2022-11-01T02:55:37.893Z,5.70
2022-11-01T02:58:05.327Z,5.47
2022-11-01T03:00:34.732Z,5.40
2022-11-01T03:03:06.962Z,5.27
2022-11-01T03:05:40.346Z,5.10
2022-11-01T03:08:08.997Z,5.20
2022-11-01T03:10:39.045Z,5.60
2022-11-01T03:13:08.908Z,5.23
2022-11-01T03:15:40.700Z,5.30
2022-11-01T03:18:19.094Z,5.20
2022-11-01T03:20:56.316Z,5.43
2022-11-01T03:23:28.329Z,5.67
2022-11-01T03:25:58.023Z,5.40
2022-11-01T03:28:25.109Z,5.50
2022-11-01T03:30:56.853Z,5.07
2022-11-01T03:33:24.899Z,5.20
2022-11-01T03:35:53.763Z,4.90
2022-11-01T03:38:24.156Z,4.80
2022-11-01T03:40:52.816Z,4.53
2022-11-01T03:43:20.302Z,4.30
2022-11-01T03:45:47.614Z,4.50
2022-11-01T03:48:14.779Z,4.03
2022-11-01T03:50:47.275Z,4.37
2022-11-01T03:53:14.398Z,4.07
2022-11-01T03:55:41.527Z,3.50
2022-11-01T03:58:08.755Z,3.40
2022-11-01T04:00:40.719Z,3.60
2022-11-01T04:03:07.964Z,3.40
2022-11-01T04:05:35.835Z,3.50
2022-11-01T04:08:02.986Z,3.43
2022-11-01T04:10:30.191Z,3.10
2022-11-01T04:12:57.740Z,3.37
2022-11-01T04:15:44.623Z,2.90
2022-11-01T04:18:36.759Z,2.90
2022-11-01T04:21:12.100Z,3.00
2022-11-01T04:23:39.452Z,2.77
2022-11-01T04:26:07.532Z,2.57
2022-11-01T04:28:34.659Z,2.37
2022-11-01T04:31:01.904Z,2.70
2022-11-01T04:33:29.006Z,3.00
2022-11-01T04:35:56.143Z,2.60
2022-11-01T04:38:23.269Z,2.30
2022-11-01T04:40:50.383Z,2.43
2022-11-01T04:43:17.470Z,2.37
2022-11-01T04:45:44.561Z,2.40
2022-11-01T04:48:13.590Z,2.27
2022-11-01T04:50:42.064Z,2.20
2022-11-01T04:53:09.700Z,2.20
2022-11-01T04:55:36.933Z,2.57
2022-11-01T04:58:04.859Z,2.50
2022-11-01T05:00:33.267Z,2.30
2022-11-01T05:03:01.866Z,2.33
2022-11-01T05:05:29.283Z,2.50
2022-11-01T05:08:03.640Z,2.23
2022-11-01T05:10:31.017Z,2.23
2022-11-01T05:12:58.195Z,2.40
2022-11-01T05:15:25.296Z,2.50
2022-11-01T05:17:52.408Z,2.27
2022-11-01T05:20:19.897Z,2.60
2022-11-01T05:22:47.187Z,2.40
2022-11-01T05:25:14.366Z,2.50
2022-11-01T05:27:41.508Z,2.87
2022-11-01T05:30:08.966Z,2.83
2022-11-01T05:32:37.834Z,2.90
2022-11-01T05:35:05.254Z,2.90
2022-11-01T05:37:32.445Z,3.00
2022-11-01T05:39:59.527Z,2.77
2022-11-01T05:42:26.873Z,2.43
2022-11-01T05:44:54.090Z,2.60
2022-11-01T05:47:21.212Z,2.80
2022-11-01T05:49:48.357Z,2.80
2022-11-01T05:52:15.462Z,2.67
2022-11-01T05:54:42.559Z,2.50
2022-11-01T05:57:09.680Z,2.63
2022-11-01T05:59:36.803Z,2.70
2022-11-01T06:02:03.990Z,3.10
2022-11-01T06:04:31.266Z,2.70
2022-11-01T06:06:58.374Z,2.60
2022-11-01T06:09:25.476Z,2.60
2022-11-01T06:11:52.602Z,2.60
2022-11-01T06:14:19.722Z,2.53
2022-11-01T06:16:46.855Z,2.73
2022-11-01T06:19:14.024Z,2.40
2022-11-01T06:21:41.140Z,2.13
2022-11-01T06:24:08.536Z,2.63
2022-11-01T06:26:35.678Z,2.40
2022-11-01T06:29:04.652Z,2.10
2022-11-01T06:31:32.022Z,2.50
2022-11-01T06:33:59.171Z,2.23
2022-11-01T06:36:26.322Z,1.80
2022-11-01T06:38:53.456Z,2.27
2022-11-01T06:41:20.939Z,2.30
2022-11-01T06:43:51.223Z,2.20
2022-11-01T06:46:18.435Z,2.27
2022-11-01T06:48:48.038Z,2.00
2022-11-01T06:51:15.161Z,2.40
2022-11-01T06:53:42.264Z,2.53
2022-11-01T06:56:09.367Z,2.37
2022-11-01T06:58:36.572Z,2.60
2022-11-01T07:01:03.904Z,2.67
2022-11-01T07:03:31.090Z,2.50
2022-11-01T07:06:00.588Z,2.80
2022-11-01T07:08:27.706Z,2.90
2022-11-01T07:10:54.801Z,2.57
2022-11-01T07:13:21.894Z,2.70
2022-11-01T07:15:49.043Z,2.53
2022-11-01T07:18:16.138Z,2.80
2022-11-01T07:20:43.344Z,2.40
2022-11-01T07:23:15.481Z,2.90
2022-11-01T07:25:42.626Z,2.53
2022-11-01T07:28:10.089Z,2.90
2022-11-01T07:30:37.216Z,2.40
2022-11-01T07:33:05.232Z,2.50
2022-11-01T07:35:33.051Z,3.23
2022-11-01T07:38:02.825Z,2.93
2022-11-01T07:40:32.336Z,2.97
2022-11-01T07:43:00.535Z,2.83
2022-11-01T07:45:28.474Z,2.57
2022-11-01T07:48:06.360Z,2.97
2022-11-01T07:50:35.007Z,3.23
2022-11-01T07:53:07.427Z,3.30
2022-11-01T07:55:35.030Z,3.30
2022-11-01T07:58:02.992Z,3.20
2022-11-01T08:00:30.590Z,3.40
2022-11-01T08:03:16.693Z,3.30
2022-11-01T08:05:44.491Z,3.27
2022-11-01T08:08:11.829Z,3.90
2022-11-01T08:10:39.329Z,3.77
2022-11-01T08:13:09.237Z,3.30
2022-11-01T08:15:36.523Z,3.10
2022-11-01T08:18:04.086Z,3.43
2022-11-01T08:20:31.706Z,3.70
2022-11-01T08:22:59.445Z,3.40
2022-11-01T08:25:26.728Z,3.60
2022-11-01T08:27:53.826Z,4.27
2022-11-01T08:30:21.256Z,3.83
2022-11-01T08:32:48.433Z,3.93
2022-11-01T08:35:15.642Z,3.90
2022-11-01T08:37:52.052Z,4.50
2022-11-01T08:40:19.258Z,4.20
2022-11-01T08:42:46.401Z,4.07
2022-11-01T08:45:13.994Z,3.67
2022-11-01T08:47:41.618Z,4.30
2022-11-01T08:50:11.313Z,3.67
2022-11-01T08:52:38.850Z,4.20
2022-11-01T08:55:06.195Z,3.80
2022-11-01T08:57:33.343Z,4.37
2022-11-01T09:00:00.544Z,3.63
2022-11-01T09:02:27.822Z,3.80
2022-11-01T09:04:55.024Z,3.73
2022-11-01T09:07:22.128Z,3.80
2022-11-01T09:09:49.243Z,4.20
2022-11-01T09:12:18.398Z,3.80
2022-11-01T09:14:49.124Z,3.87
2022-11-01T09:17:16.224Z,3.90
2022-11-01T09:19:43.340Z,3.67
2022-11-01T09:22:10.476Z,3.90
2022-11-01T09:24:37.593Z,4.10
2022-11-01T09:27:05.256Z,4.00
2022-11-01T09:32:04.771Z,4.00
2022-11-01T09:34:31.904Z,4.10
2022-11-01T09:36:59.071Z,4.10
2022-11-01T09:39:26.561Z,4.00
2022-11-01T09:41:57.306Z,3.93
2022-11-01T09:44:26.225Z,4.17
2022-11-01T09:46:58.073Z,4.10
2022-11-01T09:49:31.186Z,3.87
2022-11-01T09:51:58.957Z,3.97
2022-11-01T09:54:26.655Z,4.20
2022-11-01T09:57:02.894Z,4.00
2022-11-01T09:59:35.974Z,4.80
2022-11-01T10:02:21.976Z,4.43
2022-11-01T10:05:19.050Z,4.30
2022-11-01T10:07:50.933Z,3.77
2022-11-01T10:10:37.007Z,4.27
2022-11-01T10:13:22.801Z,4.57
2022-11-01T10:15:57.491Z,4.20
2022-11-01T10:18:31.895Z,4.77
2022-11-01T10:21:01.522Z,4.60
2022-11-01T10:23:42.116Z,4.57
2022-11-01T10:26:12.278Z,4.03
2022-11-01T10:28:45.176Z,4.60
2022-11-01T10:31:16.023Z,4.00
2022-11-01T10:33:47.715Z,4.30
2022-11-01T10:36:16.811Z,4.00
2022-11-01T10:41:42.406Z,4.20
2022-11-01T10:44:14.647Z,3.97
2022-11-01T10:46:45.483Z,3.87
2022-11-01T10:49:21.172Z,4.07
2022-11-01T10:51:53.838Z,3.87
2022-11-01T10:54:24.809Z,4.10
2022-11-01T10:56:53.973Z,3.80
2022-11-01T10:59:33.333Z,3.50
2022-11-01T11:02:02.963Z,3.63
2022-11-01T11:04:30.277Z,3.53
2022-11-01T11:06:57.630Z,3.50
2022-11-01T11:09:34.974Z,3.40
2022-11-01T11:12:08.107Z,3.43
2022-11-01T11:14:36.134Z,3.40
2022-11-01T11:17:04.815Z,3.57
2022-11-01T11:19:33.458Z,3.67
2022-11-01T11:22:01.490Z,3.80
2022-11-01T11:24:39.480Z,3.50
2022-11-01T11:27:18.911Z,3.40
2022-11-01T11:29:49.229Z,3.60
2022-11-01T11:32:21.566Z,3.60
2022-11-01T11:34:53.217Z,3.90
2022-11-01T11:37:22.423Z,3.47
2022-11-01T11:40:03.419Z,3.57
2022-11-01T11:42:30.530Z,3.57
2022-11-01T11:45:16.405Z,3.30
2022-11-01T11:47:43.600Z,3.23
2022-11-01T11:50:23.618Z,3.50
2022-11-01T11:53:01.441Z,3.50
2022-11-01T11:55:34.438Z,3.53
2022-11-01T11:58:02.649Z,3.77
2022-11-01T12:00:33.356Z,3.53
2022-11-01T12:03:04.095Z,3.67
2022-11-01T12:05:31.701Z,3.73
2022-11-01T12:07:59.114Z,4.00
2022-11-01T12:10:32.181Z,4.13
2022-11-01T12:12:59.738Z,4.00
2022-11-01T12:15:33.455Z,4.00
2022-11-01T12:18:16.463Z,4.27
2022-11-01T12:20:44.073Z,4.30
2022-11-01T12:23:17.731Z,4.13
2022-11-01T12:25:45.850Z,4.13
2022-11-01T12:28:26.168Z,4.50
2022-11-01T12:30:56.174Z,4.70
2022-11-01T12:33:41.663Z,5.00
2022-11-01T12:36:09.728Z,4.73
2022-11-01T12:38:39.818Z,5.10
2022-11-01T12:41:25.071Z,5.43
2022-11-01T12:43:59.205Z,5.93
2022-11-01T12:46:36.507Z,5.70
2022-11-01T12:49:08.897Z,5.80
2022-11-01T12:51:38.351Z,5.90
2022-11-01T12:54:14.591Z,6.00
2022-11-01T12:56:42.023Z,6.60
2022-11-01T12:59:11.116Z,7.17
2022-11-01T13:01:57.846Z,6.53
2022-11-01T13:04:41.392Z,6.50
2022-11-01T13:07:08.457Z,6.70
2022-11-01T13:10:03.025Z,7.10
2022-11-01T13:12:30.192Z,6.70
2022-11-01T13:15:04.020Z,7.23
2022-11-01T13:17:39.054Z,7.10
2022-11-01T13:20:32.919Z,7.10
2022-11-01T13:23:15.128Z,7.20
2022-11-01T13:25:43.946Z,6.73
2022-11-01T13:28:26.354Z,6.83
2022-11-01T13:31:08.717Z,7.40
2022-11-01T13:33:38.894Z,7.03
2022-11-01T13:36:11.343Z,7.27
2022-11-01T13:38:38.455Z,7.77
2022-11-01T13:41:08.667Z,8.50
2022-11-01T13:43:41.766Z,7.93
2022-11-01T13:46:08.914Z,8.03
2022-11-01T13:48:54.438Z,8.83
2022-11-01T13:51:39.339Z,8.90
2022-11-01T13:54:12.194Z,9.13
2022-11-01T13:57:11.516Z,8.97
2022-11-01T13:59:44.600Z,9.23
2022-11-01T14:02:17.700Z,9.07
2022-11-01T14:04:55.961Z,9.60
2022-11-01T14:07:24.143Z,8.90
2022-11-01T14:09:52.364Z,9.63
2022-11-01T14:12:37.988Z,9.40
2022-11-01T14:15:17.328Z,8.80
2022-11-01T14:18:00.799Z,7.60
2022-11-01T14:20:28.378Z,7.47
2022-11-01T14:22:56.928Z,7.83
2022-11-01T14:25:24.040Z,6.93
2022-11-01T14:27:52.311Z,7.10
2022-11-01T14:30:21.221Z,6.13
2022-11-01T14:32:54.393Z,5.60
2022-11-01T14:35:27.456Z,5.90
2022-11-01T14:37:55.495Z,5.40
2022-11-01T14:40:45.996Z,5.30
2022-11-01T14:43:19.146Z,5.20
2022-11-01T14:45:47.567Z,5.00
2022-11-01T14:48:19.322Z,4.63
2022-11-01T14:50:50.475Z,4.87
2022-11-01T14:53:27.983Z,4.97
2022-11-01T14:56:14.317Z,5.90
2022-11-01T14:58:41.748Z,7.23
2022-11-01T15:01:13.415Z,8.27
2022-11-01T15:03:46.300Z,9.00
2022-11-01T15:06:27.632Z,10.97
2022-11-01T15:08:58.624Z,10.67
2022-11-01T15:11:33.777Z,11.27
2022-11-01T15:14:03.952Z,12.20
2022-11-01T15:16:31.160Z,12.20
2022-11-01T15:19:00.245Z,12.93
2022-11-01T15:21:30.863Z,13.63
2022-11-01T15:23:59.217Z,15.27
2022-11-01T15:26:27.884Z,16.50
2022-11-01T15:28:55.070Z,16.47
2022-11-01T15:31:22.491Z,16.27
2022-11-01T15:34:12.582Z,16.97
2022-11-01T15:36:40.187Z,17.70
2022-11-01T15:39:18.913Z,18.53
2022-11-01T15:41:46.705Z,19.37
2022-11-01T15:44:20.213Z,19.77
2022-11-01T15:46:47.828Z,20.27
2022-11-01T15:49:26.405Z,21.70
2022-11-01T15:51:59.436Z,21.60
2022-11-01T15:54:32.373Z,21.00
2022-11-01T15:57:01.159Z,21.57
2022-11-01T15:59:35.166Z,22.63
2022-11-01T16:02:03.506Z,18.73
2022-11-01T16:04:36.450Z,21.53
2022-11-01T16:07:05.638Z,21.27
2022-11-01T16:09:38.542Z,21.07
2022-11-01T16:12:08.063Z,22.13
2022-11-01T16:14:37.737Z,21.87
2022-11-01T16:17:28.335Z,21.77
2022-11-01T16:19:55.533Z,18.37
2022-11-01T16:22:28.305Z,21.23
2022-11-01T16:25:22.006Z,20.90
2022-11-01T16:27:54.819Z,20.40
2022-11-01T16:30:34.227Z,19.47
2022-11-01T16:33:17.931Z,18.73
2022-11-01T16:35:45.665Z,19.03
2022-11-01T16:38:23.050Z,17.40
2022-11-01T16:40:57.612Z,17.83
2022-11-01T16:43:28.681Z,15.40
2022-11-01T16:45:55.899Z,17.50
2022-11-01T16:48:27.436Z,16.27
2022-11-01T16:50:55.509Z,16.63
2022-11-01T16:53:24.776Z,15.80
2022-11-01T16:55:53.208Z,15.40
2022-11-01T16:58:26.895Z,15.10
2022-11-01T17:00:57.502Z,14.27
2022-11-01T17:03:24.756Z,13.13
2022-11-01T17:05:56.355Z,13.00
2022-11-01T17:08:24.926Z,11.50
2022-11-01T17:10:52.076Z,11.03
2022-11-01T17:13:19.183Z,11.47
2022-11-01T17:15:51.182Z,10.83
2022-11-01T17:18:28.752Z,10.73
2022-11-01T17:20:57.160Z,9.80
2022-11-01T17:23:25.043Z,10.10
2022-11-01T17:25:53.462Z,10.03
2022-11-01T17:28:21.558Z,10.23
2022-11-01T17:30:48.736Z,8.77
2022-11-01T17:33:16.049Z,7.50
2022-11-01T17:35:43.279Z,7.60
2022-11-01T17:38:19.714Z,7.43
2022-11-01T17:40:46.823Z,7.50
2022-11-01T17:43:17.737Z,6.93
2022-11-01T17:45:45.206Z,6.53
2022-11-01T17:48:12.753Z,6.40
2022-11-01T17:50:40.390Z,6.30
2022-11-01T17:53:07.949Z,6.03
2022-11-01T17:55:38.571Z,5.70
2022-11-01T17:58:06.022Z,5.30
2022-11-01T18:00:33.778Z,5.40
2022-11-01T18:03:01.146Z,5.20
2022-11-01T18:05:28.322Z,4.43
2022-11-01T18:07:55.518Z,5.60
2022-11-01T18:10:22.740Z,4.33
2022-11-01T18:12:56.372Z,4.50
2022-11-01T18:15:28.205Z,4.33
2022-11-01T18:18:01.330Z,4.27
2022-11-01T18:20:49.231Z,4.23
2022-11-01T18:23:18.779Z,4.40
2022-11-01T18:25:47.641Z,3.83
2022-11-01T18:28:19.267Z,4.00
2022-11-01T18:30:57.387Z,3.40
2022-11-01T18:33:44.589Z,3.70
2022-11-01T18:36:14.835Z,4.20
2022-11-01T18:38:42.174Z,3.70
2022-11-01T18:41:13.155Z,4.17
2022-11-01T18:43:40.613Z,4.30
2022-11-01T18:46:25.140Z,4.20
2022-11-01T18:48:59.324Z,3.73
2022-11-01T18:51:31.442Z,4.40
2022-11-01T18:54:18.961Z,4.10
2022-11-01T18:56:50.710Z,4.00
2022-11-01T18:59:23.773Z,4.03
2022-11-01T19:01:56.053Z,3.87
2022-11-01T19:04:30.667Z,4.33
2022-11-01T19:07:09.544Z,4.00
2022-11-01T19:09:39.416Z,4.83
2022-11-01T19:12:16.812Z,4.47
2022-11-01T19:14:45.897Z,4.00
2022-11-01T19:17:19.645Z,4.50
2022-11-01T19:19:47.527Z,4.57
2022-11-01T19:22:33.456Z,4.20
2022-11-01T19:25:01.334Z,4.67
2022-11-01T19:27:29.111Z,4.60
2022-11-01T19:29:58.192Z,4.47
2022-11-01T19:32:25.837Z,4.37
2022-11-01T19:34:53.401Z,4.10
2022-11-01T19:37:23.539Z,5.00
2022-11-01T19:39:50.750Z,4.60
2022-11-01T19:42:26.644Z,4.90
2022-11-01T19:45:03.408Z,4.67
2022-11-01T19:47:35.991Z,4.57
2022-11-01T19:50:03.124Z,4.47
2022-11-01T19:52:37.535Z,4.77
2022-11-01T19:55:24.886Z,4.27
2022-11-01T19:57:52.120Z,4.57
2022-11-01T20:00:20.638Z,3.90
2022-11-01T20:02:52.400Z,4.70
2022-11-01T20:05:33.771Z,4.83
2022-11-01T20:08:21.400Z,4.57
2022-11-01T20:10:48.620Z,4.60
2022-11-01T20:13:15.723Z,4.90
2022-11-01T20:15:42.950Z,4.93
2022-11-01T20:18:10.801Z,5.10
2022-11-01T20:20:43.766Z,5.13
2022-11-01T20:23:27.403Z,4.73
2022-11-01T20:25:55.247Z,4.83
2022-11-01T20:28:22.373Z,5.13
2022-11-01T20:30:49.476Z,4.83
2022-11-01T20:33:16.584Z,4.43
2022-11-01T20:35:43.724Z,5.50
2022-11-01T20:38:10.908Z,5.47
2022-11-01T20:40:38.047Z,6.37
2022-11-01T20:43:06.487Z,5.80
2022-11-01T20:45:36.883Z,6.27
2022-11-01T20:48:07.399Z,6.17
2022-11-01T20:50:35.571Z,5.70
2022-11-01T20:53:04.844Z,6.10
2022-11-01T20:55:32.963Z,5.93
2022-11-01T20:58:00.326Z,5.57
2022-11-01T21:00:27.625Z,5.43
2022-11-01T21:02:55.959Z,5.47
2022-11-01T21:05:23.328Z,5.67
2022-11-01T21:07:50.528Z,5.13
2022-11-01T21:10:23.784Z,5.90
2022-11-01T21:12:50.918Z,6.33
2022-11-01T21:15:24.172Z,6.43
2022-11-01T21:17:58.193Z,6.50
2022-11-01T21:20:34.467Z,6.80
2022-11-01T21:23:20.368Z,6.27
2022-11-01T21:26:00.263Z,6.60
2022-11-01T21:28:40.998Z,6.40
2022-11-01T21:31:11.090Z,6.07
2022-11-01T21:33:39.526Z,6.30
2022-11-01T21:36:21.882Z,5.93
2022-11-01T21:38:52.209Z,5.70
2022-11-01T21:41:22.400Z,6.43
2022-11-01T21:43:49.498Z,5.93
2022-11-01T21:46:27.333Z,4.80
2022-11-01T21:48:58.706Z,5.60
2022-11-01T21:51:26.587Z,5.70
2022-11-01T21:53:53.715Z,5.53
2022-11-01T21:56:20.815Z,5.60
2022-11-01T21:58:47.931Z,5.13
2022-11-01T22:01:15.200Z,5.00
2022-11-01T22:03:42.417Z,5.10
2022-11-01T22:06:09.587Z,5.60
2022-11-01T22:08:36.736Z,5.10
2022-11-01T22:11:03.894Z,5.20
2022-11-01T22:13:30.990Z,5.20
2022-11-01T22:15:58.571Z,5.10
2022-11-01T22:18:25.745Z,5.27
2022-11-01T22:20:53.051Z,4.90
2022-11-01T22:23:20.314Z,4.80
2022-11-01T22:25:47.415Z,4.90
2022-11-01T22:28:14.531Z,4.90
2022-11-01T22:30:41.621Z,4.67
2022-11-01T22:33:11.193Z,4.70
2022-11-01T22:35:38.420Z,4.93
2022-11-01T22:38:16.545Z,5.50
2022-11-01T22:40:45.439Z,5.43
2022-11-01T22:43:17.077Z,4.00
2022-11-01T22:45:44.234Z,4.40
2022-11-01T22:48:22.976Z,4.87
2022-11-01T22:50:50.519Z,4.43
2022-11-01T22:53:21.208Z,4.23
2022-11-01T22:55:50.340Z,4.23
2022-11-01T22:58:34.025Z,4.50
2022-11-01T23:01:01.507Z,4.27
2022-11-01T23:03:32.356Z,3.80
2022-11-01T23:06:00.350Z,4.13
2022-11-01T23:08:32.570Z,4.43
2022-11-01T23:11:00.138Z,4.17
2022-11-01T23:13:50.271Z,4.00
2022-11-01T23:16:25.326Z,4.10
2022-11-01T23:18:53.494Z,4.00
2022-11-01T23:21:22.483Z,4.30
2022-11-01T23:23:50.034Z,3.77
2022-11-01T23:26:18.357Z,4.10
2022-11-01T23:28:47.190Z,4.40
2022-11-01T23:31:14.509Z,3.80
2022-11-01T23:33:43.202Z,4.10
2022-11-01T23:36:20.349Z,3.80
2022-11-01T23:39:01.626Z,4.50
2022-11-01T23:41:31.866Z,3.67
2022-11-01T23:44:00.766Z,4.10
2022-11-01T23:46:28.116Z,3.70
2022-11-01T23:48:59.344Z,3.70
2022-11-01T23:51:26.457Z,4.30
2022-11-01T23:53:55.072Z,3.87
2022-11-01T23:56:22.571Z,4.60
2022-11-01T23:58:54.247Z,3.00
